sensor_id;sensor_type;location;lat;lon;timestamp;temperature;humidity
52189;DHT22;38162;45.926;13.608;2023-10-09T00:01:25;19.40;99.40
52189;DHT22;38162;45.926;13.608;2023-10-09T00:03:51;19.40;99.50
52189;DHT22;38162;45.926;13.608;2023-10-09T00:06:21;19.40;99.50
52189;DHT22;38162;45.926;13.608;2023-10-09T00:08:55;19.40;99.80
52189;DHT22;38162;45.926;13.608;2023-10-09T00:11:23;19.40;99.90
52189;DHT22;38162;45.926;13.608;2023-10-09T00:13:55;19.40;99.70
52189;DHT22;38162;45.926;13.608;2023-10-09T00:16:23;19.40;99.60
52189;DHT22;38162;45.926;13.608;2023-10-09T00:19:06;19.50;99.60
52189;DHT22;38162;45.926;13.608;2023-10-09T00:21:40;19.40;99.30
52189;DHT22;38162;45.926;13.608;2023-10-09T00:24:06;19.50;99.20
52189;DHT22;38162;45.926;13.608;2023-10-09T00:26:43;19.50;99.20
52189;DHT22;38162;45.926;13.608;2023-10-09T00:29:14;19.60;99.00
52189;DHT22;38162;45.926;13.608;2023-10-09T00:31:55;19.60;98.60
52189;DHT22;38162;45.926;13.608;2023-10-09T00:34:39;19.60;98.20
52189;DHT22;38162;45.926;13.608;2023-10-09T00:37:07;19.70;97.70
52189;DHT22;38162;45.926;13.608;2023-10-09T00:39:44;19.70;97.30
52189;DHT22;38162;45.926;13.608;2023-10-09T00:42:11;19.70;96.90
52189;DHT22;38162;45.926;13.608;2023-10-09T00:44:52;19.70;96.70
52189;DHT22;38162;45.926;13.608;2023-10-09T00:47:18;19.70;96.50
52189;DHT22;38162;45.926;13.608;2023-10-09T00:50:00;19.70;96.30
52189;DHT22;38162;45.926;13.608;2023-10-09T00:52:41;19.70;96.20
52189;DHT22;38162;45.926;13.608;2023-10-09T00:55:15;19.70;96.10
52189;DHT22;38162;45.926;13.608;2023-10-09T00:57:47;19.70;95.90
52189;DHT22;38162;45.926;13.608;2023-10-09T01:00:23;19.70;95.50
52189;DHT22;38162;45.926;13.608;2023-10-09T01:03:01;19.70;95.40
52189;DHT22;38162;45.926;13.608;2023-10-09T01:05:46;19.70;95.30
52189;DHT22;38162;45.926;13.608;2023-10-09T01:08:22;19.70;95.10
52189;DHT22;38162;45.926;13.608;2023-10-09T01:11:06;19.70;95.00
52189;DHT22;38162;45.926;13.608;2023-10-09T01:13:36;19.70;94.70
52189;DHT22;38162;45.926;13.608;2023-10-09T01:16:06;19.70;94.40
52189;DHT22;38162;45.926;13.608;2023-10-09T01:18:32;19.70;94.30
52189;DHT22;38162;45.926;13.608;2023-10-09T01:21:02;19.70;94.20
52189;DHT22;38162;45.926;13.608;2023-10-09T01:23:28;19.70;94.30
52189;DHT22;38162;45.926;13.608;2023-10-09T01:25:55;19.70;94.10
52189;DHT22;38162;45.926;13.608;2023-10-09T01:28:20;19.70;93.90
52189;DHT22;38162;45.926;13.608;2023-10-09T01:30:46;19.70;93.80
52189;DHT22;38162;45.926;13.608;2023-10-09T01:33:13;19.70;93.60
52189;DHT22;38162;45.926;13.608;2023-10-09T01:35:50;19.70;93.60
52189;DHT22;38162;45.926;13.608;2023-10-09T01:38:21;19.70;93.40
52189;DHT22;38162;45.926;13.608;2023-10-09T01:41:06;19.70;93.40
52189;DHT22;38162;45.926;13.608;2023-10-09T01:43:34;19.70;93.40
52189;DHT22;38162;45.926;13.608;2023-10-09T01:46:00;19.70;93.50
52189;DHT22;38162;45.926;13.608;2023-10-09T01:48:30;19.70;93.60
52189;DHT22;38162;45.926;13.608;2023-10-09T01:50:58;19.60;93.80
52189;DHT22;38162;45.926;13.608;2023-10-09T01:53:25;19.70;94.80
52189;DHT22;38162;45.926;13.608;2023-10-09T01:55:55;19.30;82.20
52189;DHT22;38162;45.926;13.608;2023-10-09T01:58:20;19.50;83.10
52189;DHT22;38162;45.926;13.608;2023-10-09T02:00:46;19.50;82.80
52189;DHT22;38162;45.926;13.608;2023-10-09T02:03:20;19.50;83.00
52189;DHT22;38162;45.926;13.608;2023-10-09T02:05:51;19.50;82.80
52189;DHT22;38162;45.926;13.608;2023-10-09T02:08:18;19.50;82.90
52189;DHT22;38162;45.926;13.608;2023-10-09T02:10:52;19.40;82.40
52189;DHT22;38162;45.926;13.608;2023-10-09T02:13:21;19.40;82.40
52189;DHT22;38162;45.926;13.608;2023-10-09T02:15:55;19.50;82.00
52189;DHT22;38162;45.926;13.608;2023-10-09T02:18:24;19.40;81.70
52189;DHT22;38162;45.926;13.608;2023-10-09T02:23:28;19.40;81.60
52189;DHT22;38162;45.926;13.608;2023-10-09T02:26:22;19.40;81.30
52189;DHT22;38162;45.926;13.608;2023-10-09T02:28:55;19.40;81.40
52189;DHT22;38162;45.926;13.608;2023-10-09T02:31:30;19.40;81.50
52189;DHT22;38162;45.926;13.608;2023-10-09T02:34:19;19.40;81.70
52189;DHT22;38162;45.926;13.608;2023-10-09T02:36:49;19.40;81.40
52189;DHT22;38162;45.926;13.608;2023-10-09T02:39:15;19.40;81.10
52189;DHT22;38162;45.926;13.608;2023-10-09T02:41:54;19.40;81.00
52189;DHT22;38162;45.926;13.608;2023-10-09T02:44:25;19.40;81.20
52189;DHT22;38162;45.926;13.608;2023-10-09T02:46:52;19.30;80.70
52189;DHT22;38162;45.926;13.608;2023-10-09T02:49:23;19.30;80.60
52189;DHT22;38162;45.926;13.608;2023-10-09T02:51:49;19.30;80.60
52189;DHT22;38162;45.926;13.608;2023-10-09T02:54:18;19.30;80.30
52189;DHT22;38162;45.926;13.608;2023-10-09T02:56:51;19.30;80.60
52189;DHT22;38162;45.926;13.608;2023-10-09T02:59:43;19.30;80.30
52189;DHT22;38162;45.926;13.608;2023-10-09T03:02:10;19.30;80.60
52189;DHT22;38162;45.926;13.608;2023-10-09T03:04:36;19.30;80.20
52189;DHT22;38162;45.926;13.608;2023-10-09T03:07:04;19.30;80.50
52189;DHT22;38162;45.926;13.608;2023-10-09T03:09:29;19.30;80.30
52189;DHT22;38162;45.926;13.608;2023-10-09T03:11:57;19.30;80.50
52189;DHT22;38162;45.926;13.608;2023-10-09T03:14:33;19.30;80.50
52189;DHT22;38162;45.926;13.608;2023-10-09T03:17:00;19.30;80.50
52189;DHT22;38162;45.926;13.608;2023-10-09T03:19:27;19.30;80.50
52189;DHT22;38162;45.926;13.608;2023-10-09T03:21:53;19.30;80.60
52189;DHT22;38162;45.926;13.608;2023-10-09T03:24:19;19.30;80.40
52189;DHT22;38162;45.926;13.608;2023-10-09T03:26:48;19.30;80.10
52189;DHT22;38162;45.926;13.608;2023-10-09T03:29:14;19.30;80.10
52189;DHT22;38162;45.926;13.608;2023-10-09T03:31:40;19.30;80.00
52189;DHT22;38162;45.926;13.608;2023-10-09T03:34:08;19.20;79.60
52189;DHT22;38162;45.926;13.608;2023-10-09T03:36:36;19.20;79.80
52189;DHT22;38162;45.926;13.608;2023-10-09T03:39:05;19.20;79.90
52189;DHT22;38162;45.926;13.608;2023-10-09T03:41:49;19.20;79.90
52189;DHT22;38162;45.926;13.608;2023-10-09T03:44:15;19.10;79.70
52189;DHT22;38162;45.926;13.608;2023-10-09T03:46:46;19.10;79.90
52189;DHT22;38162;45.926;13.608;2023-10-09T03:49:12;19.10;79.40
52189;DHT22;38162;45.926;13.608;2023-10-09T03:51:39;19.10;79.80
52189;DHT22;38162;45.926;13.608;2023-10-09T03:54:07;19.10;79.80
52189;DHT22;38162;45.926;13.608;2023-10-09T03:56:33;19.10;79.50
52189;DHT22;38162;45.926;13.608;2023-10-09T03:58:59;19.10;79.60
52189;DHT22;38162;45.926;13.608;2023-10-09T04:01:26;19.00;79.70
52189;DHT22;38162;45.926;13.608;2023-10-09T04:04:03;19.10;79.80
52189;DHT22;38162;45.926;13.608;2023-10-09T04:06:31;19.00;79.80
52189;DHT22;38162;45.926;13.608;2023-10-09T04:09:00;19.00;79.70
52189;DHT22;38162;45.926;13.608;2023-10-09T04:11:39;19.00;79.70
52189;DHT22;38162;45.926;13.608;2023-10-09T04:14:08;19.00;79.70
52189;DHT22;38162;45.926;13.608;2023-10-09T04:16:51;19.00;79.80
52189;DHT22;38162;45.926;13.608;2023-10-09T04:19:17;18.90;79.90
52189;DHT22;38162;45.926;13.608;2023-10-09T04:21:47;18.90;80.10
52189;DHT22;38162;45.926;13.608;2023-10-09T04:24:13;18.90;80.10
52189;DHT22;38162;45.926;13.608;2023-10-09T04:26:39;18.90;80.00
52189;DHT22;38162;45.926;13.608;2023-10-09T04:29:10;18.90;80.00
52189;DHT22;38162;45.926;13.608;2023-10-09T04:31:36;18.90;80.20
52189;DHT22;38162;45.926;13.608;2023-10-09T04:34:03;18.90;80.20
52189;DHT22;38162;45.926;13.608;2023-10-09T04:36:50;18.90;80.20
52189;DHT22;38162;45.926;13.608;2023-10-09T04:39:36;18.80;80.20
52189;DHT22;38162;45.926;13.608;2023-10-09T04:42:02;18.80;80.30
52189;DHT22;38162;45.926;13.608;2023-10-09T04:44:46;18.80;80.40
52189;DHT22;38162;45.926;13.608;2023-10-09T04:47:45;18.80;80.80
52189;DHT22;38162;45.926;13.608;2023-10-09T04:50:23;18.70;80.90
52189;DHT22;38162;45.926;13.608;2023-10-09T04:52:55;18.70;81.00
52189;DHT22;38162;45.926;13.608;2023-10-09T04:55:20;18.70;81.00
52189;DHT22;38162;45.926;13.608;2023-10-09T04:57:50;18.70;80.90
52189;DHT22;38162;45.926;13.608;2023-10-09T05:00:34;18.70;81.10
52189;DHT22;38162;45.926;13.608;2023-10-09T05:03:00;18.70;81.10
52189;DHT22;38162;45.926;13.608;2023-10-09T05:05:50;18.70;81.00
52189;DHT22;38162;45.926;13.608;2023-10-09T05:08:24;18.70;81.20
52189;DHT22;38162;45.926;13.608;2023-10-09T05:10:59;18.70;81.30
52189;DHT22;38162;45.926;13.608;2023-10-09T05:13:36;18.70;81.40
52189;DHT22;38162;45.926;13.608;2023-10-09T05:16:05;18.70;81.60
52189;DHT22;38162;45.926;13.608;2023-10-09T05:18:32;18.70;81.10
52189;DHT22;38162;45.926;13.608;2023-10-09T05:21:04;18.60;81.10
52189;DHT22;38162;45.926;13.608;2023-10-09T05:23:41;18.60;81.20
52189;DHT22;38162;45.926;13.608;2023-10-09T05:26:16;18.60;81.30
52189;DHT22;38162;45.926;13.608;2023-10-09T05:29:01;18.60;81.50
52189;DHT22;38162;45.926;13.608;2023-10-09T05:31:44;18.60;81.70
52189;DHT22;38162;45.926;13.608;2023-10-09T05:34:21;18.60;81.80
52189;DHT22;38162;45.926;13.608;2023-10-09T05:36:47;18.60;81.70
52189;DHT22;38162;45.926;13.608;2023-10-09T05:39:13;18.60;81.90
52189;DHT22;38162;45.926;13.608;2023-10-09T05:42:06;18.60;82.10
52189;DHT22;38162;45.926;13.608;2023-10-09T05:44:43;18.60;82.20
52189;DHT22;38162;45.926;13.608;2023-10-09T05:47:41;18.60;82.30
52189;DHT22;38162;45.926;13.608;2023-10-09T05:50:29;18.50;82.50
52189;DHT22;38162;45.926;13.608;2023-10-09T05:52:58;18.60;82.80
52189;DHT22;38162;45.926;13.608;2023-10-09T05:55:27;18.60;82.90
52189;DHT22;38162;45.926;13.608;2023-10-09T05:58:12;18.60;83.10
52189;DHT22;38162;45.926;13.608;2023-10-09T06:00:56;18.60;83.20
52189;DHT22;38162;45.926;13.608;2023-10-09T06:03:51;18.60;83.40
52189;DHT22;38162;45.926;13.608;2023-10-09T06:06:36;18.60;83.30
52189;DHT22;38162;45.926;13.608;2023-10-09T06:09:10;18.60;83.50
52189;DHT22;38162;45.926;13.608;2023-10-09T06:11:35;18.60;83.70
52189;DHT22;38162;45.926;13.608;2023-10-09T06:14:03;18.70;83.90
52189;DHT22;38162;45.926;13.608;2023-10-09T06:16:30;18.70;83.90
52189;DHT22;38162;45.926;13.608;2023-10-09T06:19:05;18.70;84.00
52189;DHT22;38162;45.926;13.608;2023-10-09T06:21:36;18.70;84.10
52189;DHT22;38162;45.926;13.608;2023-10-09T06:24:25;18.70;84.30
52189;DHT22;38162;45.926;13.608;2023-10-09T06:27:11;18.70;84.40
52189;DHT22;38162;45.926;13.608;2023-10-09T06:29:49;18.70;84.50
52189;DHT22;38162;45.926;13.608;2023-10-09T06:32:15;18.70;84.60
52189;DHT22;38162;45.926;13.608;2023-10-09T06:34:50;18.70;85.50
52189;DHT22;38162;45.926;13.608;2023-10-09T06:37:22;18.70;85.90
52189;DHT22;38162;45.926;13.608;2023-10-09T06:39:48;18.80;86.00
52189;DHT22;38162;45.926;13.608;2023-10-09T06:42:23;18.80;86.00
52189;DHT22;38162;45.926;13.608;2023-10-09T06:45:07;18.80;85.80
52189;DHT22;38162;45.926;13.608;2023-10-09T06:47:40;18.80;85.80
52189;DHT22;38162;45.926;13.608;2023-10-09T06:50:19;18.90;85.80
52189;DHT22;38162;45.926;13.608;2023-10-09T06:52:50;18.90;85.70
52189;DHT22;38162;45.926;13.608;2023-10-09T06:55:22;18.90;85.50
52189;DHT22;38162;45.926;13.608;2023-10-09T06:57:59;19.00;85.50
52189;DHT22;38162;45.926;13.608;2023-10-09T07:00:29;19.00;85.50
52189;DHT22;38162;45.926;13.608;2023-10-09T07:03:33;19.00;85.50
52189;DHT22;38162;45.926;13.608;2023-10-09T07:06:03;19.00;85.10
52189;DHT22;38162;45.926;13.608;2023-10-09T07:08:35;19.10;85.00
52189;DHT22;38162;45.926;13.608;2023-10-09T07:11:06;19.10;84.90
52189;DHT22;38162;45.926;13.608;2023-10-09T07:13:47;19.20;84.90
52189;DHT22;38162;45.926;13.608;2023-10-09T07:16:20;19.20;84.70
52189;DHT22;38162;45.926;13.608;2023-10-09T07:19:06;19.20;84.60
52189;DHT22;38162;45.926;13.608;2023-10-09T07:21:37;19.20;84.40
52189;DHT22;38162;45.926;13.608;2023-10-09T07:24:05;19.30;84.40
52189;DHT22;38162;45.926;13.608;2023-10-09T07:26:40;19.30;84.30
52189;DHT22;38162;45.926;13.608;2023-10-09T07:29:13;19.40;84.10
52189;DHT22;38162;45.926;13.608;2023-10-09T07:31:44;19.40;83.80
52189;DHT22;38162;45.926;13.608;2023-10-09T07:34:23;19.50;83.70
52189;DHT22;38162;45.926;13.608;2023-10-09T07:37:13;19.50;83.50
52189;DHT22;38162;45.926;13.608;2023-10-09T07:39:44;19.60;83.50
52189;DHT22;38162;45.926;13.608;2023-10-09T07:42:15;19.60;83.40
52189;DHT22;38162;45.926;13.608;2023-10-09T07:44:44;19.60;83.10
52189;DHT22;38162;45.926;13.608;2023-10-09T07:47:18;19.60;83.30
52189;DHT22;38162;45.926;13.608;2023-10-09T07:50:11;19.70;83.00
52189;DHT22;38162;45.926;13.608;2023-10-09T07:52:36;19.70;82.90
52189;DHT22;38162;45.926;13.608;2023-10-09T07:55:09;19.80;82.50
52189;DHT22;38162;45.926;13.608;2023-10-09T07:57:51;19.80;82.40
52189;DHT22;38162;45.926;13.608;2023-10-09T08:00:17;19.80;82.50
52189;DHT22;38162;45.926;13.608;2023-10-09T08:03:01;19.90;82.40
52189;DHT22;38162;45.926;13.608;2023-10-09T08:05:28;19.90;82.30
52189;DHT22;38162;45.926;13.608;2023-10-09T08:08:01;20.00;82.20
52189;DHT22;38162;45.926;13.608;2023-10-09T08:10:45;20.00;82.20
52189;DHT22;38162;45.926;13.608;2023-10-09T08:13:31;20.00;82.10
52189;DHT22;38162;45.926;13.608;2023-10-09T08:16:29;20.00;82.10
52189;DHT22;38162;45.926;13.608;2023-10-09T08:19:03;20.10;82.10
52189;DHT22;38162;45.926;13.608;2023-10-09T08:21:49;20.20;82.10
52189;DHT22;38162;45.926;13.608;2023-10-09T08:24:33;20.30;82.00
52189;DHT22;38162;45.926;13.608;2023-10-09T08:27:07;20.30;81.80
52189;DHT22;38162;45.926;13.608;2023-10-09T08:29:51;20.30;81.60
52189;DHT22;38162;45.926;13.608;2023-10-09T08:32:36;20.40;81.60
52189;DHT22;38162;45.926;13.608;2023-10-09T08:35:06;20.40;81.60
52189;DHT22;38162;45.926;13.608;2023-10-09T08:37:52;20.50;81.40
52189;DHT22;38162;45.926;13.608;2023-10-09T08:40:18;20.50;81.20
52189;DHT22;38162;45.926;13.608;2023-10-09T08:42:52;20.60;81.40
52189;DHT22;38162;45.926;13.608;2023-10-09T08:45:24;20.60;81.50
52189;DHT22;38162;45.926;13.608;2023-10-09T08:47:55;20.60;81.30
52189;DHT22;38162;45.926;13.608;2023-10-09T08:50:22;20.70;81.40
52189;DHT22;38162;45.926;13.608;2023-10-09T08:52:48;20.70;81.30
52189;DHT22;38162;45.926;13.608;2023-10-09T08:55:15;20.80;81.20
52189;DHT22;38162;45.926;13.608;2023-10-09T08:57:43;20.90;81.20
52189;DHT22;38162;45.926;13.608;2023-10-09T09:00:16;20.90;81.00
52189;DHT22;38162;45.926;13.608;2023-10-09T09:02:47;21.00;81.00
52189;DHT22;38162;45.926;13.608;2023-10-09T09:05:21;21.00;81.00
52189;DHT22;38162;45.926;13.608;2023-10-09T09:07:49;21.00;81.20
52189;DHT22;38162;45.926;13.608;2023-10-09T09:10:14;21.10;80.90
52189;DHT22;38162;45.926;13.608;2023-10-09T09:12:46;21.10;80.80
52189;DHT22;38162;45.926;13.608;2023-10-09T09:15:15;21.10;80.70
52189;DHT22;38162;45.926;13.608;2023-10-09T09:17:45;21.20;80.60
52189;DHT22;38162;45.926;13.608;2023-10-09T09:22:52;21.30;80.90
52189;DHT22;38162;45.926;13.608;2023-10-09T09:25:18;21.30;81.00
52189;DHT22;38162;45.926;13.608;2023-10-09T09:27:49;21.30;81.10
52189;DHT22;38162;45.926;13.608;2023-10-09T09:30:34;21.40;81.00
52189;DHT22;38162;45.926;13.608;2023-10-09T09:36:03;21.50;81.60
52189;DHT22;38162;45.926;13.608;2023-10-09T09:38:33;21.50;82.50
52189;DHT22;38162;45.926;13.608;2023-10-09T09:41:07;21.60;84.60
52189;DHT22;38162;45.926;13.608;2023-10-09T09:43:33;21.70;83.90
52189;DHT22;38162;45.926;13.608;2023-10-09T09:46:00;21.70;83.50
52189;DHT22;38162;45.926;13.608;2023-10-09T09:48:29;21.80;84.00
52189;DHT22;38162;45.926;13.608;2023-10-09T09:50:57;21.80;83.90
52189;DHT22;38162;45.926;13.608;2023-10-09T09:53:23;21.90;84.00
52189;DHT22;38162;45.926;13.608;2023-10-09T09:55:49;22.00;84.70
52189;DHT22;38162;45.926;13.608;2023-10-09T09:58:25;22.00;85.30
52189;DHT22;38162;45.926;13.608;2023-10-09T10:03:21;22.20;85.10
52189;DHT22;38162;45.926;13.608;2023-10-09T10:05:47;22.30;87.20
52189;DHT22;38162;45.926;13.608;2023-10-09T10:08:16;22.30;86.80
52189;DHT22;38162;45.926;13.608;2023-10-09T10:10:45;22.40;87.00
52189;DHT22;38162;45.926;13.608;2023-10-09T10:16:06;22.40;87.50
52189;DHT22;38162;45.926;13.608;2023-10-09T10:21:28;22.50;88.80
52189;DHT22;38162;45.926;13.608;2023-10-09T10:23:57;22.40;88.00
52189;DHT22;38162;45.926;13.608;2023-10-09T10:26:31;22.40;87.70
52189;DHT22;38162;45.926;13.608;2023-10-09T10:29:18;22.50;89.90
52189;DHT22;38162;45.926;13.608;2023-10-09T10:34:17;22.50;91.70
52189;DHT22;38162;45.926;13.608;2023-10-09T10:36:52;22.50;91.40
52189;DHT22;38162;45.926;13.608;2023-10-09T10:39:25;22.60;92.40
52189;DHT22;38162;45.926;13.608;2023-10-09T10:42:08;22.60;92.40
52189;DHT22;38162;45.926;13.608;2023-10-09T10:44:35;22.70;91.80
52189;DHT22;38162;45.926;13.608;2023-10-09T10:47:10;22.70;91.70
52189;DHT22;38162;45.926;13.608;2023-10-09T10:49:50;22.70;91.70
52189;DHT22;38162;45.926;13.608;2023-10-09T10:52:22;22.70;91.90
52189;DHT22;38162;45.926;13.608;2023-10-09T10:54:48;22.80;91.90
52189;DHT22;38162;45.926;13.608;2023-10-09T10:57:35;22.80;91.70
52189;DHT22;38162;45.926;13.608;2023-10-09T11:00:19;22.80;91.90
52189;DHT22;38162;45.926;13.608;2023-10-09T11:03:03;22.90;92.10
52189;DHT22;38162;45.926;13.608;2023-10-09T11:05:44;22.90;92.00
52189;DHT22;38162;45.926;13.608;2023-10-09T11:08:16;23.00;92.10
52189;DHT22;38162;45.926;13.608;2023-10-09T11:10:48;23.00;92.20
52189;DHT22;38162;45.926;13.608;2023-10-09T11:13:22;23.00;92.40
52189;DHT22;38162;45.926;13.608;2023-10-09T11:15:56;23.10;92.50
52189;DHT22;38162;45.926;13.608;2023-10-09T11:18:40;23.20;92.10
52189;DHT22;38162;45.926;13.608;2023-10-09T11:21:13;23.20;91.70
52189;DHT22;38162;45.926;13.608;2023-10-09T11:23:38;23.20;91.40
52189;DHT22;38162;45.926;13.608;2023-10-09T11:26:18;23.30;91.10
52189;DHT22;38162;45.926;13.608;2023-10-09T11:29:13;23.30;91.30
52189;DHT22;38162;45.926;13.608;2023-10-09T11:32:07;23.40;91.30
52189;DHT22;38162;45.926;13.608;2023-10-09T11:34:42;23.40;91.50
52189;DHT22;38162;45.926;13.608;2023-10-09T11:37:17;23.50;91.20
52189;DHT22;38162;45.926;13.608;2023-10-09T11:39:58;23.50;91.50
52189;DHT22;38162;45.926;13.608;2023-10-09T11:42:24;23.50;91.20
52189;DHT22;38162;45.926;13.608;2023-10-09T11:45:19;23.60;91.40
52189;DHT22;38162;45.926;13.608;2023-10-09T11:47:48;23.60;91.30
52189;DHT22;38162;45.926;13.608;2023-10-09T11:53:08;23.60;91.10
52189;DHT22;38162;45.926;13.608;2023-10-09T11:55:35;23.60;91.00
52189;DHT22;38162;45.926;13.608;2023-10-09T11:58:00;23.60;91.30
52189;DHT22;38162;45.926;13.608;2023-10-09T12:00:27;23.70;91.10
52189;DHT22;38162;45.926;13.608;2023-10-09T12:02:56;23.70;90.90
52189;DHT22;38162;45.926;13.608;2023-10-09T12:05:22;23.70;90.80
52189;DHT22;38162;45.926;13.608;2023-10-09T12:07:48;23.70;90.70
52189;DHT22;38162;45.926;13.608;2023-10-09T12:10:23;23.80;90.90
52189;DHT22;38162;45.926;13.608;2023-10-09T12:12:52;23.80;90.70
52189;DHT22;38162;45.926;13.608;2023-10-09T12:15:18;23.90;90.60
52189;DHT22;38162;45.926;13.608;2023-10-09T12:17:44;23.90;90.50
52189;DHT22;38162;45.926;13.608;2023-10-09T12:20:13;23.90;89.80
52189;DHT22;38162;45.926;13.608;2023-10-09T12:22:40;24.00;90.00
52189;DHT22;38162;45.926;13.608;2023-10-09T12:25:06;24.00;90.00
52189;DHT22;38162;45.926;13.608;2023-10-09T12:27:34;24.00;90.10
52189;DHT22;38162;45.926;13.608;2023-10-09T12:30:00;24.00;90.20
52189;DHT22;38162;45.926;13.608;2023-10-09T12:32:28;24.10;90.10
52189;DHT22;38162;45.926;13.608;2023-10-09T12:34:54;24.10;89.20
52189;DHT22;38162;45.926;13.608;2023-10-09T12:37:21;24.10;88.90
52189;DHT22;38162;45.926;13.608;2023-10-09T12:39:47;24.10;88.00
52189;DHT22;38162;45.926;13.608;2023-10-09T12:42:13;24.10;88.60
52189;DHT22;38162;45.926;13.608;2023-10-09T12:44:38;24.20;89.00
52189;DHT22;38162;45.926;13.608;2023-10-09T12:47:08;24.10;88.60
52189;DHT22;38162;45.926;13.608;2023-10-09T12:49:36;24.20;88.50
52189;DHT22;38162;45.926;13.608;2023-10-09T12:52:05;24.20;88.80
52189;DHT22;38162;45.926;13.608;2023-10-09T12:54:41;24.20;88.30
52189;DHT22;38162;45.926;13.608;2023-10-09T12:57:07;24.20;88.40
52189;DHT22;38162;45.926;13.608;2023-10-09T12:59:41;24.20;88.50
52189;DHT22;38162;45.926;13.608;2023-10-09T13:02:14;24.30;88.90
52189;DHT22;38162;45.926;13.608;2023-10-09T13:05:00;24.20;88.50
52189;DHT22;38162;45.926;13.608;2023-10-09T13:07:28;24.20;88.40
52189;DHT22;38162;45.926;13.608;2023-10-09T13:09:54;24.20;88.90
52189;DHT22;38162;45.926;13.608;2023-10-09T13:12:37;24.30;89.40
52189;DHT22;38162;45.926;13.608;2023-10-09T13:15:09;24.20;88.90
52189;DHT22;38162;45.926;13.608;2023-10-09T13:17:38;24.30;88.70
52189;DHT22;38162;45.926;13.608;2023-10-09T13:20:04;24.30;88.70
52189;DHT22;38162;45.926;13.608;2023-10-09T13:22:39;24.30;88.40
52189;DHT22;38162;45.926;13.608;2023-10-09T13:25:07;24.30;88.30
52189;DHT22;38162;45.926;13.608;2023-10-09T13:27:32;24.30;87.40
52189;DHT22;38162;45.926;13.608;2023-10-09T13:29:59;24.30;87.60
52189;DHT22;38162;45.926;13.608;2023-10-09T13:32:33;24.30;87.60
52189;DHT22;38162;45.926;13.608;2023-10-09T13:35:01;24.30;87.80
52189;DHT22;38162;45.926;13.608;2023-10-09T13:37:28;24.30;87.90
52189;DHT22;38162;45.926;13.608;2023-10-09T13:39:56;24.30;87.70
52189;DHT22;38162;45.926;13.608;2023-10-09T13:42:22;24.30;87.70
52189;DHT22;38162;45.926;13.608;2023-10-09T13:44:51;24.30;87.70
52189;DHT22;38162;45.926;13.608;2023-10-09T13:47:19;24.30;88.80
52189;DHT22;38162;45.926;13.608;2023-10-09T13:49:46;24.30;89.10
52189;DHT22;38162;45.926;13.608;2023-10-09T13:52:16;24.30;88.40
52189;DHT22;38162;45.926;13.608;2023-10-09T13:54:44;24.30;88.50
52189;DHT22;38162;45.926;13.608;2023-10-09T13:57:13;24.30;89.10
52189;DHT22;38162;45.926;13.608;2023-10-09T13:59:40;24.40;88.20
52189;DHT22;38162;45.926;13.608;2023-10-09T14:02:14;24.30;88.40
52189;DHT22;38162;45.926;13.608;2023-10-09T14:04:43;24.30;88.30
52189;DHT22;38162;45.926;13.608;2023-10-09T14:07:09;24.30;88.80
52189;DHT22;38162;45.926;13.608;2023-10-09T14:09:35;24.30;88.60
52189;DHT22;38162;45.926;13.608;2023-10-09T14:12:04;24.30;88.50
52189;DHT22;38162;45.926;13.608;2023-10-09T14:14:33;24.30;88.60
52189;DHT22;38162;45.926;13.608;2023-10-09T14:16:59;24.30;88.70
52189;DHT22;38162;45.926;13.608;2023-10-09T14:19:25;24.30;88.60
52189;DHT22;38162;45.926;13.608;2023-10-09T14:21:51;24.40;89.30
52189;DHT22;38162;45.926;13.608;2023-10-09T14:24:16;24.40;88.80
52189;DHT22;38162;45.926;13.608;2023-10-09T14:26:43;24.30;89.40
52189;DHT22;38162;45.926;13.608;2023-10-09T14:29:12;24.40;88.80
52189;DHT22;38162;45.926;13.608;2023-10-09T14:31:46;24.40;88.90
52189;DHT22;38162;45.926;13.608;2023-10-09T14:34:28;24.30;89.30
52189;DHT22;38162;45.926;13.608;2023-10-09T14:36:58;24.30;89.90
52189;DHT22;38162;45.926;13.608;2023-10-09T14:39:26;24.30;89.60
52189;DHT22;38162;45.926;13.608;2023-10-09T14:41:52;24.30;89.70
52189;DHT22;38162;45.926;13.608;2023-10-09T14:44:20;24.30;90.10
52189;DHT22;38162;45.926;13.608;2023-10-09T14:46:45;24.30;89.90
52189;DHT22;38162;45.926;13.608;2023-10-09T14:49:11;24.30;89.70
52189;DHT22;38162;45.926;13.608;2023-10-09T14:51:40;24.30;89.80
52189;DHT22;38162;45.926;13.608;2023-10-09T14:54:05;24.30;89.90
52189;DHT22;38162;45.926;13.608;2023-10-09T14:56:33;24.30;90.00
52189;DHT22;38162;45.926;13.608;2023-10-09T14:59:02;24.30;90.10
52189;DHT22;38162;45.926;13.608;2023-10-09T15:01:28;24.20;90.20
52189;DHT22;38162;45.926;13.608;2023-10-09T15:03:55;24.20;90.40
52189;DHT22;38162;45.926;13.608;2023-10-09T15:06:22;24.20;90.30
52189;DHT22;38162;45.926;13.608;2023-10-09T15:08:49;24.20;90.40
52189;DHT22;38162;45.926;13.608;2023-10-09T15:13:41;24.10;90.30
52189;DHT22;38162;45.926;13.608;2023-10-09T15:16:06;24.10;90.40
52189;DHT22;38162;45.926;13.608;2023-10-09T15:18:32;24.10;90.60
52189;DHT22;38162;45.926;13.608;2023-10-09T15:20:58;24.00;90.50
52189;DHT22;38162;45.926;13.608;2023-10-09T15:23:25;24.00;90.50
52189;DHT22;38162;45.926;13.608;2023-10-09T15:25:50;24.00;90.60
52189;DHT22;38162;45.926;13.608;2023-10-09T15:28:18;24.00;90.70
52189;DHT22;38162;45.926;13.608;2023-10-09T15:30:44;24.00;90.80
52189;DHT22;38162;45.926;13.608;2023-10-09T15:33:15;24.00;90.90
52189;DHT22;38162;45.926;13.608;2023-10-09T15:35:45;24.00;90.90
52189;DHT22;38162;45.926;13.608;2023-10-09T15:38:15;24.00;90.80
52189;DHT22;38162;45.926;13.608;2023-10-09T15:40:41;23.90;90.80
52189;DHT22;38162;45.926;13.608;2023-10-09T15:43:09;23.90;90.80
52189;DHT22;38162;45.926;13.608;2023-10-09T15:45:40;23.90;90.90
52189;DHT22;38162;45.926;13.608;2023-10-09T15:48:06;23.90;91.00
52189;DHT22;38162;45.926;13.608;2023-10-09T15:50:31;23.90;91.00
52189;DHT22;38162;45.926;13.608;2023-10-09T15:52:59;23.90;91.10
52189;DHT22;38162;45.926;13.608;2023-10-09T15:55:26;23.90;91.50
52189;DHT22;38162;45.926;13.608;2023-10-09T15:57:52;23.90;91.40
52189;DHT22;38162;45.926;13.608;2023-10-09T16:00:20;23.90;91.30
52189;DHT22;38162;45.926;13.608;2023-10-09T16:02:49;23.90;91.50
52189;DHT22;38162;45.926;13.608;2023-10-09T16:05:18;23.80;91.80
52189;DHT22;38162;45.926;13.608;2023-10-09T16:07:44;23.80;91.60
52189;DHT22;38162;45.926;13.608;2023-10-09T16:10:10;23.80;91.80